createdAt,value
2023-04-18T00:00:25.531Z,72.00
2023-04-18T00:02:55.275Z,72.10
2023-04-18T00:05:23.116Z,72.50
2023-04-18T00:07:51.576Z,72.30
2023-04-18T00:10:19.170Z,72.30
2023-04-18T00:12:47.307Z,72.40
2023-04-18T00:15:14.789Z,72.40
2023-04-18T00:17:42.301Z,72.20
2023-04-18T00:20:13.589Z,72.20
2023-04-18T00:22:42.742Z,72.50
2023-04-18T00:25:11.516Z,72.10
2023-04-18T00:27:39.675Z,72.70
2023-04-18T00:30:08.372Z,72.60
2023-04-18T00:32:36.017Z,72.60
2023-04-18T00:35:04.182Z,72.50
2023-04-18T00:37:31.496Z,72.40
2023-04-18T00:39:58.949Z,72.30
2023-04-18T00:42:27.950Z,72.10
2023-04-18T00:44:55.465Z,72.10
2023-04-18T00:47:22.857Z,72.10
2023-04-18T00:49:50.432Z,71.90
2023-04-18T00:52:18.950Z,71.80
2023-04-18T00:54:47.476Z,72.00
2023-04-18T00:57:15.416Z,72.10
2023-04-18T00:59:43.135Z,72.00
2023-04-18T01:02:10.674Z,71.90
2023-04-18T01:04:38.878Z,71.70
2023-04-18T01:07:06.743Z,72.00
2023-04-18T01:09:34.180Z,73.20
2023-04-18T01:12:02.063Z,72.60
2023-04-18T01:14:29.531Z,72.40
2023-04-18T01:16:58.843Z,72.70
2023-04-18T01:19:26.431Z,72.90
2023-04-18T01:21:54.415Z,72.80
2023-04-18T01:24:24.609Z,73.60
2023-04-18T01:26:52.164Z,72.90
2023-04-18T01:29:19.544Z,72.50
2023-04-18T01:31:47.353Z,72.40
2023-04-18T01:34:15.234Z,72.70
2023-04-18T01:36:42.956Z,72.80
2023-04-18T01:39:10.715Z,72.80
2023-04-18T01:41:38.625Z,73.10
2023-04-18T01:44:05.965Z,73.10
2023-04-18T01:46:33.394Z,73.10
2023-04-18T01:49:00.919Z,72.80
2023-04-18T01:51:28.550Z,72.70
2023-04-18T01:53:56.298Z,73.40
2023-04-18T01:56:23.815Z,73.40
2023-04-18T01:58:51.203Z,74.00
2023-04-18T02:01:18.684Z,74.00
2023-04-18T02:03:46.526Z,74.40
2023-04-18T02:06:14.107Z,74.20
2023-04-18T02:08:41.691Z,74.10
2023-04-18T02:11:09.071Z,74.10
2023-04-18T02:13:36.596Z,74.90
2023-04-18T02:16:04.038Z,73.50
2023-04-18T02:18:34.651Z,73.30
2023-04-18T02:21:02.170Z,73.60
2023-04-18T02:23:29.494Z,73.90
2023-04-18T02:25:56.995Z,74.20
2023-04-18T02:28:24.491Z,73.90
2023-04-18T02:30:52.088Z,74.20
2023-04-18T02:33:19.772Z,74.10
2023-04-18T02:35:47.340Z,74.40
2023-04-18T02:38:14.664Z,74.30
2023-04-18T02:40:42.185Z,73.90
2023-04-18T02:43:09.624Z,73.70
2023-04-18T02:45:37.100Z,73.90
2023-04-18T02:48:04.687Z,73.70
2023-04-18T02:50:32.374Z,74.30
2023-04-18T02:52:59.762Z,74.10
2023-04-18T02:55:27.108Z,74.80
2023-04-18T02:57:58.070Z,75.40
2023-04-18T03:00:25.684Z,74.50
2023-04-18T03:02:53.635Z,74.40
2023-04-18T03:05:22.011Z,74.20
2023-04-18T03:07:49.396Z,74.00
2023-04-18T03:10:16.985Z,74.10
2023-04-18T03:12:44.444Z,74.10
2023-04-18T03:15:11.915Z,74.60
2023-04-18T03:17:39.679Z,74.40
2023-04-18T03:20:08.076Z,74.60
2023-04-18T03:22:35.506Z,74.20
2023-04-18T03:25:04.652Z,74.40
2023-04-18T03:27:32.120Z,74.30
2023-04-18T03:29:59.550Z,74.10
2023-04-18T03:32:27.199Z,74.50
2023-04-18T03:34:54.572Z,74.80
2023-04-18T03:37:22.030Z,74.00
2023-04-18T03:39:49.516Z,73.70
2023-04-18T03:42:16.953Z,74.30
2023-04-18T03:44:44.317Z,74.60
2023-04-18T03:47:11.754Z,73.20
2023-04-18T03:49:40.592Z,73.30
2023-04-18T03:52:08.105Z,73.30
2023-04-18T03:54:35.545Z,74.00
2023-04-18T03:57:03.342Z,74.00
2023-04-18T03:59:31.017Z,73.60
2023-04-18T04:01:58.488Z,73.50
2023-04-18T04:04:26.539Z,73.30
2023-04-18T04:06:54.426Z,73.70
2023-04-18T04:09:21.913Z,72.80
2023-04-18T04:11:49.612Z,72.30
2023-04-18T04:14:17.078Z,72.50
2023-04-18T04:16:44.652Z,72.60
2023-04-18T04:19:12.220Z,72.80
2023-04-18T04:21:39.916Z,73.70
2023-04-18T04:24:07.969Z,72.40
2023-04-18T04:26:36.042Z,72.40
2023-04-18T04:29:03.814Z,72.00
2023-04-18T04:31:32.052Z,72.00
2023-04-18T04:33:59.432Z,72.20
2023-04-18T04:36:27.312Z,71.20
2023-04-18T04:38:54.831Z,70.90
2023-04-18T04:41:22.990Z,70.50
2023-04-18T04:43:51.377Z,70.90
2023-04-18T04:46:20.278Z,70.60
2023-04-18T04:48:47.803Z,70.00
2023-04-18T04:51:15.317Z,70.30
2023-04-18T04:53:42.891Z,69.50
2023-04-18T04:56:10.361Z,70.40
2023-04-18T04:58:37.745Z,71.40
2023-04-18T05:01:07.967Z,70.40
2023-04-18T05:03:36.895Z,69.90
2023-04-18T05:06:07.700Z,69.20
2023-04-18T05:08:35.301Z,70.10
2023-04-18T05:11:03.674Z,69.80
2023-04-18T05:13:36.668Z,69.40
2023-04-18T05:16:08.329Z,69.20
2023-04-18T05:18:39.204Z,69.00
2023-04-18T05:21:06.776Z,68.60
2023-04-18T05:23:41.609Z,67.50
2023-04-18T05:26:09.249Z,68.10
2023-04-18T05:28:39.556Z,68.90
2023-04-18T05:31:07.091Z,67.80
2023-04-18T05:33:34.578Z,68.10
2023-04-18T05:36:02.158Z,68.30
2023-04-18T05:38:29.585Z,68.80
2023-04-18T05:41:00.314Z,75.10
2023-04-18T05:43:27.827Z,76.60
2023-04-18T05:45:57.654Z,67.60
2023-04-18T05:48:25.387Z,67.20
2023-04-18T05:50:52.770Z,67.20
2023-04-18T05:53:20.661Z,82.70
2023-04-18T05:55:51.795Z,86.90
2023-04-18T05:58:19.869Z,87.40
2023-04-18T06:00:48.685Z,88.10
2023-04-18T06:03:16.550Z,88.40
2023-04-18T06:05:44.676Z,87.10
2023-04-18T06:08:22.593Z,86.30
2023-04-18T06:10:50.012Z,87.40
2023-04-18T06:13:17.612Z,86.70
2023-04-18T06:15:45.329Z,86.60
2023-04-18T06:18:13.154Z,88.60
2023-04-18T06:20:46.562Z,86.10
2023-04-18T06:23:14.446Z,86.10
2023-04-18T06:25:45.996Z,84.70
2023-04-18T06:28:14.045Z,85.80
2023-04-18T06:30:41.999Z,87.00
2023-04-18T06:33:11.362Z,86.00
2023-04-18T06:35:39.892Z,87.20
2023-04-18T06:38:07.772Z,86.60
2023-04-18T06:40:35.612Z,87.00
2023-04-18T06:43:13.477Z,86.90
2023-04-18T06:45:44.450Z,86.80
2023-04-18T06:48:19.707Z,87.10
2023-04-18T06:50:48.596Z,87.40
2023-04-18T06:53:18.756Z,87.00
2023-04-18T06:55:46.628Z,87.20
2023-04-18T06:58:16.568Z,86.10
2023-04-18T07:00:49.084Z,87.20
2023-04-18T07:03:16.933Z,87.70
2023-04-18T07:05:46.059Z,87.20
2023-04-18T07:08:14.526Z,86.40
2023-04-18T07:10:43.730Z,87.90
2023-04-18T07:13:11.105Z,87.90
2023-04-18T07:15:44.924Z,87.40
2023-04-18T07:18:14.551Z,87.50
2023-04-18T07:20:45.598Z,88.00
2023-04-18T07:23:16.678Z,81.60
2023-04-18T07:25:52.979Z,80.20
2023-04-18T07:28:24.789Z,87.60
2023-04-18T07:30:53.420Z,85.80
2023-04-18T07:33:21.396Z,85.30
2023-04-18T07:35:50.653Z,86.10
2023-04-18T07:38:21.872Z,85.80
2023-04-18T07:41:00.010Z,85.10
2023-04-18T07:43:27.793Z,85.30
2023-04-18T07:45:55.774Z,84.50
2023-04-18T07:48:23.568Z,84.40
2023-04-18T07:50:53.387Z,83.90
2023-04-18T07:53:22.220Z,83.40
2023-04-18T07:55:57.787Z,83.20
2023-04-18T07:58:31.450Z,83.20
2023-04-18T08:00:59.330Z,82.80
2023-04-18T08:03:28.700Z,82.00
2023-04-18T08:06:05.681Z,82.30
2023-04-18T08:08:34.013Z,81.60
2023-04-18T08:11:02.300Z,81.50
2023-04-18T08:13:29.849Z,81.40
2023-04-18T08:16:00.816Z,80.90
2023-04-18T08:18:28.533Z,81.60
2023-04-18T08:20:57.378Z,81.60
2023-04-18T08:23:26.258Z,81.20
2023-04-18T08:25:54.731Z,81.10
2023-04-18T08:28:22.872Z,78.70
2023-04-18T08:31:49.155Z,80.30
2023-04-18T08:34:34.131Z,80.20
2023-04-18T08:37:03.536Z,80.80
2023-04-18T08:39:40.336Z,80.40
2023-04-18T08:42:11.392Z,79.30
2023-04-18T08:44:39.839Z,79.60
2023-04-18T09:27:14.614Z,80.90
2023-04-18T09:29:54.677Z,75.00
2023-04-18T09:32:31.302Z,75.60
2023-04-18T09:35:04.349Z,76.00
2023-04-18T09:37:34.330Z,74.10
2023-04-18T09:40:25.660Z,74.70
2023-04-18T09:46:04.727Z,73.30
2023-04-18T09:49:04.831Z,73.40
2023-04-18T09:51:34.078Z,73.30
2023-04-18T09:54:12.296Z,72.50
2023-04-18T10:03:28.407Z,72.70
2023-04-18T10:05:59.442Z,72.00
2023-04-18T10:08:29.325Z,70.30
2023-04-18T10:10:59.962Z,70.50
2023-04-18T10:13:29.058Z,69.40
2023-04-18T10:15:59.008Z,69.80
2023-04-18T10:18:32.943Z,69.00
2023-04-18T10:21:07.625Z,67.90
2023-04-18T10:23:54.125Z,66.70
2023-04-18T10:26:22.716Z,67.10
2023-04-18T10:28:55.210Z,65.80
2023-04-18T10:31:30.440Z,64.50
2023-04-18T10:34:33.003Z,64.60
2023-04-18T10:37:09.636Z,66.20
2023-04-18T10:39:58.675Z,65.50
2023-04-18T10:42:56.302Z,63.60
2023-04-18T10:45:25.633Z,63.60
2023-04-18T10:48:30.557Z,62.10
2023-04-18T10:51:27.688Z,62.60
2023-04-18T10:53:59.204Z,62.20
2023-04-18T10:56:30.575Z,61.60
2023-04-18T10:59:05.388Z,62.20
2023-04-18T11:01:38.283Z,61.90
2023-04-18T11:04:13.519Z,62.90
2023-04-18T11:06:49.428Z,62.30
2023-04-18T11:09:17.020Z,62.90
2023-04-18T11:11:45.802Z,62.40
2023-04-18T11:18:04.267Z,62.40
2023-04-18T11:20:39.300Z,62.40
2023-04-18T11:23:27.505Z,62.00
2023-04-18T11:26:20.217Z,63.40
2023-04-18T11:28:55.254Z,64.60
2023-04-18T11:31:49.773Z,63.60
2023-04-18T11:34:17.918Z,62.20
2023-04-18T11:36:55.096Z,60.80
2023-04-18T11:39:26.877Z,61.50
2023-04-18T11:41:57.471Z,61.80
2023-04-18T11:44:27.960Z,61.30
2023-04-18T11:46:55.648Z,60.70
2023-04-18T11:49:35.131Z,60.80
2023-04-18T11:52:14.537Z,58.50
2023-04-18T11:54:46.994Z,52.00
2023-04-18T11:57:30.555Z,54.60
2023-04-18T12:00:00.296Z,46.70
2023-04-18T12:02:47.650Z,39.20
2023-04-18T12:05:38.897Z,38.80
2023-04-18T12:08:08.483Z,38.70
2023-04-18T12:10:38.722Z,39.30
2023-04-18T12:13:09.062Z,38.60
2023-04-18T12:15:44.917Z,38.40
2023-04-18T12:18:14.434Z,38.40
2023-04-18T12:20:47.562Z,37.90
2023-04-18T12:23:34.504Z,38.40
2023-04-18T12:26:06.746Z,37.80
2023-04-18T12:28:35.808Z,38.00
2023-04-18T12:31:06.814Z,38.30
2023-04-18T12:33:36.981Z,43.70
2023-04-18T12:36:06.340Z,58.80
2023-04-18T12:38:34.565Z,39.50
2023-04-18T12:41:02.336Z,61.40
2023-04-18T12:43:29.788Z,61.50
2023-04-18T12:45:57.376Z,56.90
2023-04-18T12:48:25.161Z,43.10
2023-04-18T12:50:52.631Z,51.70
2023-04-18T12:53:20.364Z,40.20
2023-04-18T12:55:47.750Z,40.30
2023-04-18T12:58:18.816Z,40.70
2023-04-18T13:00:46.683Z,40.10
2023-04-18T13:03:17.362Z,40.70
2023-04-18T13:05:44.923Z,40.60
2023-04-18T13:08:17.045Z,41.00
2023-04-18T13:10:47.536Z,41.50
2023-04-18T13:13:15.213Z,41.90
2023-04-18T13:15:42.742Z,41.40
2023-04-18T13:18:10.412Z,42.40
2023-04-18T13:20:37.881Z,41.70
2023-04-18T13:23:05.951Z,42.50
2023-04-18T13:25:34.190Z,42.90
2023-04-18T13:28:04.976Z,42.30
2023-04-18T13:30:32.772Z,42.20
2023-04-18T13:33:03.164Z,42.50
2023-04-18T13:35:30.748Z,42.90
2023-04-18T13:37:58.475Z,43.10
2023-04-18T13:40:26.673Z,42.60
2023-04-18T13:42:54.149Z,41.50
2023-04-18T13:45:21.576Z,40.10
2023-04-18T13:47:48.907Z,39.50
2023-04-18T13:50:16.579Z,39.60
2023-04-18T13:52:44.277Z,38.80
2023-04-18T13:55:12.521Z,43.40
2023-04-18T13:57:41.503Z,43.40
2023-04-18T14:00:10.002Z,43.60
2023-04-18T14:02:37.925Z,41.10
2023-04-18T14:05:06.396Z,41.20
2023-04-18T14:07:34.115Z,40.90
2023-04-18T14:10:01.449Z,40.80
2023-04-18T14:12:28.810Z,40.90
2023-04-18T14:14:57.358Z,46.70
2023-04-18T14:17:24.751Z,39.00
2023-04-18T14:19:52.213Z,39.60
2023-04-18T14:22:19.633Z,38.70
2023-04-18T14:24:47.048Z,39.20
2023-04-18T14:27:14.653Z,38.80
2023-04-18T14:29:42.270Z,38.60
2023-04-18T14:32:09.961Z,38.80
2023-04-18T14:34:38.957Z,39.00
2023-04-18T14:37:06.663Z,39.00
2023-04-18T14:39:34.222Z,38.70
2023-04-18T14:42:01.804Z,38.30
2023-04-18T14:44:31.716Z,38.70
2023-04-18T14:46:59.461Z,39.20
2023-04-18T14:49:26.913Z,38.90
2023-04-18T14:51:54.498Z,39.00
2023-04-18T14:54:22.049Z,38.40
2023-04-18T14:56:49.848Z,38.60
2023-04-18T14:59:17.350Z,38.60
2023-04-18T15:01:45.137Z,38.80
2023-04-18T15:04:13.080Z,48.80
2023-04-18T15:06:40.870Z,50.60
2023-04-18T15:09:08.677Z,51.40
2023-04-18T15:11:36.115Z,52.50
2023-04-18T15:14:03.800Z,51.70
2023-04-18T15:16:32.177Z,51.50
2023-04-18T15:19:00.542Z,52.90
2023-04-18T15:21:28.091Z,53.10
2023-04-18T15:23:55.625Z,54.30
2023-04-18T15:26:24.502Z,56.50
2023-04-18T15:28:56.990Z,55.30
2023-04-18T15:31:25.413Z,55.00
2023-04-18T15:33:52.891Z,55.50
2023-04-18T15:36:20.261Z,55.50
2023-04-18T15:38:47.670Z,55.10
2023-04-18T15:41:15.087Z,55.40
2023-04-18T15:43:45.686Z,55.80
2023-04-18T15:46:13.306Z,55.80
2023-04-18T15:48:40.863Z,57.30
2023-04-18T15:51:08.309Z,56.20
2023-04-18T15:53:35.768Z,56.30
2023-04-18T15:56:03.553Z,56.50
2023-04-18T15:58:31.193Z,57.60
2023-04-18T16:00:58.973Z,58.40
2023-04-18T16:03:27.115Z,58.40
2023-04-18T16:05:54.743Z,58.60
2023-04-18T16:08:22.082Z,57.80
2023-04-18T16:10:52.384Z,57.80
2023-04-18T16:13:20.152Z,60.40
2023-04-18T16:15:48.345Z,62.40
2023-04-18T16:18:15.786Z,62.70
2023-04-18T16:20:43.142Z,58.20
2023-04-18T16:23:10.706Z,58.00
2023-04-18T16:25:38.074Z,57.10
2023-04-18T16:28:05.781Z,58.60
2023-04-18T16:30:33.133Z,58.70
2023-04-18T16:33:00.657Z,58.60
2023-04-18T16:35:28.188Z,58.10
2023-04-18T16:37:55.699Z,57.50
2023-04-18T16:40:23.319Z,57.80
2023-04-18T16:42:52.936Z,58.70
2023-04-18T16:45:20.410Z,58.60
2023-04-18T16:47:48.029Z,58.50
2023-04-18T16:50:15.468Z,58.80
2023-04-18T16:52:43.140Z,58.50
2023-04-18T16:55:11.150Z,59.30
2023-04-18T16:57:38.956Z,60.10
2023-04-18T17:00:07.360Z,60.60
2023-04-18T17:02:35.331Z,60.00
2023-04-18T17:05:03.053Z,61.50
2023-04-18T17:07:31.839Z,61.80
2023-04-18T17:09:59.212Z,61.30
2023-04-18T17:12:27.130Z,62.00
2023-04-18T17:14:54.488Z,62.80
2023-04-18T17:17:23.837Z,64.10
2023-04-18T17:19:51.267Z,64.70
2023-04-18T17:22:18.630Z,64.10
2023-04-18T17:24:46.078Z,65.50
2023-04-18T17:27:14.142Z,65.70
2023-04-18T17:29:41.755Z,66.20
2023-04-18T17:32:09.436Z,65.80
2023-04-18T17:34:36.765Z,67.20
2023-04-18T17:37:05.460Z,67.00
2023-04-18T17:39:33.022Z,66.40
2023-04-18T17:42:01.159Z,66.40
2023-04-18T17:44:28.759Z,47.00
2023-04-18T17:46:56.112Z,47.00
2023-04-18T17:49:23.567Z,47.10
2023-04-18T17:51:51.203Z,47.30
2023-04-18T17:54:18.535Z,47.50
2023-04-18T17:56:46.706Z,47.60
2023-04-18T17:59:14.486Z,47.70
2023-04-18T18:01:43.538Z,47.70
2023-04-18T18:04:11.261Z,47.70
2023-04-18T18:06:38.878Z,47.90
2023-04-18T18:09:07.093Z,47.60
2023-04-18T18:11:34.594Z,47.70
2023-04-18T18:14:02.148Z,48.00
2023-04-18T18:16:29.619Z,48.70
2023-04-18T18:18:58.233Z,48.50
2023-04-18T18:21:26.554Z,48.70
2023-04-18T18:23:54.115Z,49.10
2023-04-18T18:26:21.450Z,49.50
2023-04-18T18:28:49.041Z,49.60
2023-04-18T18:31:17.670Z,49.80
2023-04-18T18:33:45.538Z,50.50
2023-04-18T18:36:12.892Z,50.20
2023-04-18T18:38:40.403Z,50.20
2023-04-18T18:41:08.362Z,50.10
2023-04-18T18:43:35.887Z,50.20
2023-04-18T18:46:03.377Z,50.60
2023-04-18T18:48:32.947Z,51.30
2023-04-18T18:51:00.652Z,51.80
2023-04-18T18:53:30.908Z,52.30
2023-04-18T18:55:58.431Z,52.40
2023-04-18T18:58:25.969Z,52.20
2023-04-18T19:00:54.537Z,52.30
2023-04-18T19:03:22.598Z,52.50
2023-04-18T19:05:50.040Z,53.10
2023-04-18T19:08:17.394Z,53.20
2023-04-18T19:10:44.780Z,53.10
2023-04-18T19:13:12.131Z,53.80
2023-04-18T19:15:39.442Z,53.60
2023-04-18T19:18:06.902Z,54.20
2023-04-18T19:20:34.432Z,54.20
2023-04-18T19:23:02.653Z,54.30
2023-04-18T19:25:30.078Z,54.30
2023-04-18T19:27:58.761Z,54.70
2023-04-18T19:30:26.275Z,54.50
2023-04-18T19:32:53.850Z,54.60
2023-04-18T19:35:21.664Z,54.80
2023-04-18T19:37:48.976Z,55.20
2023-04-18T19:40:16.731Z,55.70
2023-04-18T19:42:44.288Z,55.90
2023-04-18T19:45:12.240Z,55.90
2023-04-18T19:47:39.695Z,56.30
2023-04-18T19:50:08.099Z,56.40
2023-04-18T19:52:36.462Z,56.50
2023-04-18T19:55:04.097Z,56.70
2023-04-18T19:57:34.068Z,56.70
2023-04-18T20:00:01.651Z,57.80
2023-04-18T20:02:29.173Z,57.60
2023-04-18T20:04:56.946Z,57.70
2023-04-18T20:07:26.238Z,57.80
2023-04-18T20:09:54.043Z,58.70
2023-04-18T20:12:21.895Z,58.20
2023-04-18T20:14:49.554Z,58.20
2023-04-18T20:17:17.571Z,58.40
2023-04-18T20:19:47.209Z,58.30
2023-04-18T20:22:15.099Z,58.40
2023-04-18T20:24:42.819Z,59.00
2023-04-18T20:27:10.264Z,58.60
2023-04-18T20:29:37.709Z,59.00
2023-04-18T20:32:05.951Z,59.30
2023-04-18T20:34:33.727Z,59.30
2023-04-18T20:37:01.207Z,59.20
2023-04-18T20:39:28.556Z,59.70
2023-04-18T20:41:57.995Z,59.90
2023-04-18T20:44:25.558Z,60.40
2023-04-18T20:46:55.694Z,60.40
2023-04-18T20:49:23.213Z,60.60
2023-04-18T20:51:50.647Z,61.20
2023-04-18T20:54:18.105Z,61.20
2023-04-18T20:56:45.543Z,61.60
2023-04-18T20:59:12.986Z,61.50
2023-04-18T21:01:41.420Z,61.80
2023-04-18T21:04:09.028Z,61.90
2023-04-18T21:06:36.913Z,62.30
2023-04-18T21:09:04.360Z,62.40
2023-04-18T21:11:31.803Z,62.50
2023-04-18T21:13:59.292Z,62.60
2023-04-18T21:16:27.155Z,62.70
2023-04-18T21:18:55.293Z,63.50
2023-04-18T21:21:23.411Z,62.90
2023-04-18T21:23:50.893Z,62.90
2023-04-18T21:26:19.147Z,63.10
2023-04-18T21:29:01.000Z,63.10
2023-04-18T21:31:30.867Z,63.10
2023-04-18T21:34:00.048Z,63.30
2023-04-18T21:36:28.807Z,63.60
2023-04-18T21:38:57.921Z,64.00
2023-04-18T21:41:25.608Z,64.00
2023-04-18T21:43:53.588Z,64.30
2023-04-18T21:46:21.184Z,64.40
2023-04-18T21:48:49.120Z,64.60
2023-04-18T21:51:17.436Z,64.90
2023-04-18T21:53:45.027Z,64.90
2023-04-18T21:56:12.652Z,65.00
2023-04-18T21:58:40.081Z,65.50
2023-04-18T22:01:07.707Z,65.80
2023-04-18T22:03:36.341Z,65.90
2023-04-18T22:06:04.589Z,67.00
2023-04-18T22:08:32.166Z,67.10
2023-04-18T22:11:00.362Z,67.40
2023-04-18T22:13:33.550Z,67.50
2023-04-18T22:16:04.838Z,67.60
2023-04-18T22:18:34.118Z,67.70
2023-04-18T22:21:03.429Z,67.70
2023-04-18T22:23:31.474Z,67.70
2023-04-18T22:25:58.992Z,67.90
2023-04-18T22:28:28.076Z,68.20
2023-04-18T22:30:56.077Z,68.10
2023-04-18T22:33:26.182Z,68.10
2023-04-18T22:35:54.403Z,68.20
2023-04-18T22:38:21.753Z,68.30
2023-04-18T22:40:49.157Z,68.40
2023-04-18T22:43:16.992Z,68.50
2023-04-18T22:45:45.782Z,68.40
2023-04-18T22:48:13.594Z,68.60
2023-04-18T22:50:43.824Z,68.90
2023-04-18T22:53:14.364Z,69.10
2023-04-18T22:55:42.854Z,69.40
2023-04-18T22:58:11.089Z,69.40
2023-04-18T23:00:38.711Z,69.70
2023-04-18T23:03:06.310Z,69.90
2023-04-18T23:05:34.577Z,70.00
2023-04-18T23:08:02.572Z,70.00
2023-04-18T23:10:30.158Z,69.80
2023-04-18T23:12:57.671Z,70.20
2023-04-18T23:15:26.738Z,70.40
2023-04-18T23:17:54.483Z,70.70
2023-04-18T23:20:22.400Z,70.90
2023-04-18T23:22:51.823Z,71.20
2023-04-18T23:25:20.133Z,71.20
2023-04-18T23:27:48.173Z,71.60
2023-04-18T23:30:15.598Z,72.70
2023-04-18T23:32:43.045Z,72.10
2023-04-18T23:35:11.938Z,72.30
2023-04-18T23:37:39.297Z,72.50
2023-04-18T23:40:08.084Z,72.40
2023-04-18T23:42:36.128Z,72.50
2023-04-18T23:45:04.376Z,72.50
2023-04-18T23:47:32.164Z,72.70
2023-04-18T23:49:59.579Z,73.30
2023-04-18T23:52:27.015Z,73.10
2023-04-18T23:54:54.479Z,74.10
2023-04-18T23:57:21.948Z,73.50
2023-04-18T23:59:49.239Z,73.30
